Nacip Raydan, Brazil
Current Conditions -  °F | °C
As of 10:00 AM on Thursday 27 Nov 2014 (Local Time) from SBIP Reporting Station
Broken Clouds Broken Clouds  
Wind Chill: 81°   Ceiling: 6000
Heat Index: 81°   Visibility: 6mi
Dew Point: 61°   Wind: 8mph
Humidity: 51%   Direction: 60°ENE
Pressure: 29.91"   Gusts: NA
Location:  18.46°S, 42.25°W
Report Text: SBIP 271200Z 06007KT 9999 SCT035 BKN060 27/16 Q1013
Loading
Personal Weather Stations






























Interactive Weather Map New forecast layout! Learn more

10-Day Weather Forecast

Advertisements
Track Severe Weather on mobile